createdAt,value
2019-02-19T00:01:02.073Z,10.87
2019-02-19T00:03:29.185Z,9.93
2019-02-19T00:05:56.321Z,9.40
2019-02-19T00:08:23.452Z,9.77
2019-02-19T00:10:50.543Z,10.13
2019-02-19T00:13:17.672Z,9.60
2019-02-19T00:15:44.795Z,9.47
2019-02-19T00:18:11.920Z,9.37
2019-02-19T00:20:39.042Z,8.90
2019-02-19T00:23:06.160Z,9.70
2019-02-19T00:25:33.278Z,9.97
2019-02-19T00:28:00.388Z,9.83
2019-02-19T00:30:27.511Z,9.63
2019-02-19T00:32:54.592Z,9.70
2019-02-19T00:35:21.665Z,9.60
2019-02-19T00:37:48.756Z,9.20
2019-02-19T00:40:15.862Z,9.37
2019-02-19T00:42:43.001Z,10.00
2019-02-19T00:45:16.503Z,9.10
2019-02-19T00:47:37.268Z,9.97
2019-02-19T00:50:04.697Z,9.60
2019-02-19T00:52:31.808Z,9.67
2019-02-19T00:54:58.938Z,8.80
2019-02-19T00:57:26.029Z,9.97
2019-02-19T00:59:53.167Z,9.83
2019-02-19T01:02:20.300Z,9.30
2019-02-19T01:04:47.457Z,9.80
2019-02-19T01:07:14.565Z,9.10
2019-02-19T01:09:41.668Z,8.93
2019-02-19T01:12:08.813Z,9.93
2019-02-19T01:14:35.946Z,9.27
2019-02-19T01:17:03.053Z,9.17
2019-02-19T01:19:30.131Z,9.27
2019-02-19T01:21:57.285Z,9.27
2019-02-19T01:24:24.387Z,9.90
2019-02-19T01:26:51.481Z,8.97
2019-02-19T01:29:18.569Z,9.33
2019-02-19T01:31:45.672Z,8.93
2019-02-19T01:34:12.768Z,9.03
2019-02-19T01:36:39.857Z,9.03
2019-02-19T01:39:06.930Z,8.83
2019-02-19T01:41:34.016Z,9.67
2019-02-19T01:44:01.100Z,9.67
2019-02-19T01:46:28.192Z,8.63
2019-02-19T01:48:55.277Z,8.70
2019-02-19T01:51:22.376Z,9.53
2019-02-19T01:53:49.499Z,8.30
2019-02-19T01:56:16.569Z,8.63
2019-02-19T01:58:43.627Z,9.10
2019-02-19T02:01:10.720Z,8.80
2019-02-19T02:03:37.820Z,9.13
2019-02-19T02:06:04.913Z,8.73
2019-02-19T02:08:31.999Z,8.90
2019-02-19T02:10:59.099Z,8.77
2019-02-19T02:13:26.216Z,8.77
2019-02-19T02:15:53.280Z,9.20
2019-02-19T02:18:20.373Z,8.90
2019-02-19T02:20:47.477Z,9.30
2019-02-19T02:23:14.580Z,8.80
2019-02-19T02:25:41.652Z,8.87
2019-02-19T02:28:08.743Z,9.20
2019-02-19T02:30:35.881Z,8.70
2019-02-19T02:33:02.952Z,8.70
2019-02-19T02:35:30.072Z,9.83
2019-02-19T02:37:57.193Z,8.30
2019-02-19T02:40:24.263Z,8.87
2019-02-19T02:42:51.340Z,8.23
2019-02-19T02:45:18.431Z,8.67
2019-02-19T02:47:45.514Z,8.33
2019-02-19T02:50:12.629Z,8.43
2019-02-19T02:52:39.729Z,8.87
2019-02-19T02:55:06.836Z,7.87
2019-02-19T02:57:33.933Z,7.90
2019-02-19T03:00:01.041Z,8.27
2019-02-19T03:02:28.117Z,7.43
2019-02-19T03:04:55.208Z,8.60
2019-02-19T03:07:29.533Z,8.77
2019-02-19T03:09:56.633Z,8.40
2019-02-19T03:12:23.702Z,8.27
2019-02-19T03:14:50.798Z,8.33
2019-02-19T03:17:17.934Z,8.20
2019-02-19T03:19:45.034Z,8.00
2019-02-19T03:22:12.129Z,8.43
2019-02-19T03:24:39.244Z,8.30
2019-02-19T03:27:06.353Z,8.27
2019-02-19T03:29:33.444Z,7.37
2019-02-19T03:32:00.542Z,7.60
2019-02-19T03:34:27.625Z,7.80
2019-02-19T03:36:54.719Z,7.17
2019-02-19T03:39:21.804Z,7.40
2019-02-19T03:41:48.894Z,8.03
2019-02-19T03:44:15.988Z,8.00
2019-02-19T03:46:43.111Z,7.60
2019-02-19T03:49:10.205Z,7.10
2019-02-19T03:51:37.272Z,8.37
2019-02-19T03:54:04.356Z,7.30
2019-02-19T03:56:31.435Z,7.57
2019-02-19T03:58:58.523Z,7.57
2019-02-19T04:01:25.602Z,7.47
2019-02-19T04:03:52.779Z,7.77
2019-02-19T04:06:19.901Z,8.00
2019-02-19T04:08:46.996Z,7.63
2019-02-19T04:11:14.077Z,7.50
2019-02-19T04:13:41.165Z,6.80
2019-02-19T04:16:08.265Z,7.67
2019-02-19T04:18:35.358Z,7.43
2019-02-19T04:21:02.473Z,7.07
2019-02-19T04:23:29.557Z,7.60
2019-02-19T04:25:56.680Z,6.93
2019-02-19T04:28:23.782Z,7.20
2019-02-19T04:30:50.868Z,7.20
2019-02-19T04:33:17.958Z,7.23
2019-02-19T04:35:45.053Z,7.17
2019-02-19T04:38:12.117Z,7.03
2019-02-19T04:40:39.261Z,7.80
2019-02-19T04:43:06.345Z,6.50
2019-02-19T04:45:33.438Z,6.90
2019-02-19T04:48:00.537Z,6.73
2019-02-19T04:50:27.613Z,6.67
2019-02-19T04:52:54.682Z,7.17
2019-02-19T04:55:21.778Z,7.07
2019-02-19T04:57:48.882Z,6.73
2019-02-19T05:00:15.969Z,7.37
2019-02-19T05:02:43.042Z,6.90
2019-02-19T05:05:10.117Z,6.57
2019-02-19T05:07:37.195Z,6.33
2019-02-19T05:10:04.357Z,6.60
2019-02-19T05:12:31.430Z,7.00
2019-02-19T05:14:58.555Z,6.70
2019-02-19T05:17:25.657Z,6.73
2019-02-19T05:19:52.720Z,7.13
2019-02-19T05:22:19.794Z,6.53
2019-02-19T05:24:46.884Z,5.77
2019-02-19T05:27:13.967Z,7.07
2019-02-19T05:29:41.042Z,6.63
2019-02-19T05:32:08.119Z,6.60
2019-02-19T05:34:35.208Z,6.40
2019-02-19T05:37:02.296Z,6.30
2019-02-19T05:39:29.389Z,6.37
2019-02-19T05:41:56.541Z,6.70
2019-02-19T05:44:23.630Z,6.47
2019-02-19T05:46:50.715Z,6.23
2019-02-19T05:49:17.800Z,6.70
2019-02-19T05:51:44.886Z,6.40
2019-02-19T05:54:11.982Z,5.93
2019-02-19T05:56:39.067Z,6.03
2019-02-19T05:59:06.178Z,5.87
2019-02-19T06:01:33.269Z,6.93
2019-02-19T06:04:00.369Z,6.30
2019-02-19T06:06:27.460Z,6.17
2019-02-19T06:08:54.550Z,6.37
2019-02-19T06:11:21.620Z,5.80
2019-02-19T06:13:48.747Z,5.97
2019-02-19T06:16:15.840Z,5.70
2019-02-19T06:18:42.928Z,5.83
2019-02-19T06:21:10.041Z,6.27
2019-02-19T06:23:37.131Z,6.03
2019-02-19T06:26:04.224Z,6.20
2019-02-19T06:28:31.296Z,5.90
2019-02-19T06:30:58.397Z,5.63
2019-02-19T06:33:25.513Z,6.00
2019-02-19T06:35:52.613Z,6.50
2019-02-19T06:38:19.692Z,5.97
2019-02-19T06:40:46.785Z,5.93
2019-02-19T06:43:13.867Z,6.20
2019-02-19T06:45:40.950Z,5.70
2019-02-19T06:48:08.040Z,6.40
2019-02-19T06:50:35.101Z,6.40
2019-02-19T06:53:02.169Z,6.10
2019-02-19T06:55:29.253Z,6.07
2019-02-19T06:57:56.369Z,6.47
2019-02-19T07:00:23.459Z,6.20
2019-02-19T07:02:56.136Z,5.67
2019-02-19T07:05:24.089Z,6.30
2019-02-19T07:07:51.170Z,5.93
2019-02-19T07:10:18.279Z,5.90
2019-02-19T07:12:45.382Z,5.97
2019-02-19T07:15:12.515Z,6.00
2019-02-19T07:17:39.556Z,5.27
2019-02-19T07:20:06.697Z,5.87
2019-02-19T07:22:33.805Z,5.70
2019-02-19T07:25:00.876Z,5.43
2019-02-19T07:27:27.971Z,6.30
2019-02-19T07:29:55.056Z,5.70
2019-02-19T07:32:22.179Z,6.13
2019-02-19T07:34:49.286Z,5.97
2019-02-19T07:37:16.396Z,5.83
2019-02-19T07:39:43.482Z,6.27
2019-02-19T07:42:10.570Z,5.57
2019-02-19T07:44:37.673Z,5.93
2019-02-19T07:47:04.765Z,5.40
2019-02-19T07:49:31.849Z,5.97
2019-02-19T07:51:58.965Z,5.70
2019-02-19T07:54:26.065Z,6.17
2019-02-19T07:56:53.160Z,5.57
2019-02-19T07:59:20.271Z,6.13
2019-02-19T08:01:47.373Z,5.33
2019-02-19T08:04:14.451Z,6.07
2019-02-19T08:06:41.524Z,5.70
2019-02-19T08:09:11.003Z,5.73
2019-02-19T08:11:38.117Z,5.60
2019-02-19T08:14:05.242Z,5.87
2019-02-19T08:16:32.329Z,6.27
2019-02-19T08:18:59.464Z,6.03
2019-02-19T08:21:26.537Z,5.90
2019-02-19T08:23:53.600Z,5.63
2019-02-19T08:26:20.693Z,5.57
2019-02-19T08:28:47.804Z,5.63
2019-02-19T08:31:14.896Z,5.57
2019-02-19T08:33:41.984Z,5.93
2019-02-19T08:36:09.070Z,5.50
2019-02-19T08:38:36.150Z,5.67
2019-02-19T08:41:03.248Z,5.03
2019-02-19T08:43:30.328Z,5.40
2019-02-19T08:45:57.440Z,5.03
2019-02-19T08:48:24.541Z,4.90
2019-02-19T08:50:51.612Z,5.73
2019-02-19T08:53:18.693Z,5.70
2019-02-19T08:55:45.822Z,5.20
2019-02-19T08:58:12.909Z,5.17
2019-02-19T09:00:40.009Z,5.10
2019-02-19T09:03:07.101Z,5.43
2019-02-19T09:05:34.150Z,5.17
2019-02-19T09:08:01.237Z,4.93
2019-02-19T09:10:28.305Z,5.30
2019-02-19T09:12:55.376Z,4.97
2019-02-19T09:15:22.462Z,4.73
2019-02-19T09:17:51.909Z,5.20
2019-02-19T09:20:16.661Z,5.00
2019-02-19T09:22:43.801Z,5.33
2019-02-19T09:25:10.868Z,5.27
2019-02-19T09:27:37.932Z,5.13
2019-02-19T09:30:05.972Z,5.40
2019-02-19T09:32:33.061Z,5.50
2019-02-19T09:35:00.306Z,5.80
2019-02-19T09:37:27.251Z,5.27
2019-02-19T09:39:54.336Z,4.70
2019-02-19T09:42:21.404Z,5.53
2019-02-19T09:44:48.512Z,5.23
2019-02-19T09:47:15.577Z,4.97
2019-02-19T09:49:42.663Z,5.37
2019-02-19T09:52:09.734Z,5.10
2019-02-19T09:54:36.809Z,4.93
2019-02-19T09:57:03.897Z,5.73
2019-02-19T09:59:30.968Z,5.77
2019-02-19T10:01:58.049Z,5.00
2019-02-19T10:04:25.122Z,5.73
2019-02-19T10:06:52.209Z,5.13
2019-02-19T10:09:19.289Z,5.80
2019-02-19T10:11:46.366Z,5.10
2019-02-19T10:14:13.436Z,5.60
2019-02-19T10:16:41.879Z,5.00
2019-02-19T10:19:07.627Z,5.23
2019-02-19T10:21:34.701Z,5.27
2019-02-19T10:24:01.802Z,5.40
2019-02-19T10:26:28.881Z,6.03
2019-02-19T10:28:55.949Z,5.07
2019-02-19T10:31:23.037Z,5.03
2019-02-19T10:33:50.162Z,6.03
2019-02-19T10:36:17.235Z,5.27
2019-02-19T10:38:44.324Z,5.60
2019-02-19T10:41:11.421Z,5.50
2019-02-19T10:43:38.480Z,6.13
2019-02-19T10:46:05.580Z,5.50
2019-02-19T10:48:32.644Z,6.00
2019-02-19T10:50:59.708Z,5.43
2019-02-19T10:53:26.800Z,6.23
2019-02-19T10:55:53.876Z,5.83
2019-02-19T10:58:23.139Z,6.07
2019-02-19T11:00:48.137Z,5.47
2019-02-19T11:03:15.205Z,5.03
2019-02-19T11:05:42.281Z,5.07
2019-02-19T11:08:09.392Z,5.37
2019-02-19T11:10:36.477Z,5.23
2019-02-19T11:13:03.548Z,5.00
2019-02-19T11:15:30.616Z,5.50
2019-02-19T11:17:57.695Z,5.37
2019-02-19T11:20:24.797Z,5.93
2019-02-19T11:22:51.896Z,5.87
2019-02-19T11:25:18.992Z,5.13
2019-02-19T11:27:46.097Z,5.70
2019-02-19T11:30:14.166Z,5.67
2019-02-19T11:32:41.237Z,5.47
2019-02-19T11:35:08.341Z,5.03
2019-02-19T11:37:37.309Z,5.90
2019-02-19T11:40:02.566Z,5.20
2019-02-19T11:42:29.653Z,5.33
2019-02-19T11:44:56.720Z,5.47
2019-02-19T11:47:26.558Z,5.63
2019-02-19T11:49:50.944Z,5.77
2019-02-19T11:52:18.031Z,5.23
2019-02-19T11:54:45.150Z,5.10
2019-02-19T11:57:12.234Z,5.40
2019-02-19T11:59:39.287Z,5.03
2019-02-19T12:02:10.213Z,5.37
2019-02-19T12:04:37.276Z,5.10
2019-02-19T12:07:04.360Z,4.50
2019-02-19T12:09:31.461Z,4.73
2019-02-19T12:11:58.552Z,5.00
2019-02-19T12:14:25.636Z,5.33
2019-02-19T12:16:52.721Z,4.63
2019-02-19T12:19:19.781Z,4.77
2019-02-19T12:21:46.874Z,4.93
2019-02-19T12:24:13.965Z,5.13
2019-02-19T12:26:41.042Z,4.90
2019-02-19T12:29:08.140Z,5.00
2019-02-19T12:31:35.222Z,4.57
2019-02-19T12:34:02.280Z,5.57
2019-02-19T12:36:29.368Z,5.30
2019-02-19T12:38:56.693Z,4.50
2019-02-19T12:41:23.776Z,4.90
2019-02-19T12:43:51.080Z,5.00
2019-02-19T12:46:17.941Z,4.83
2019-02-19T12:48:45.028Z,4.87
2019-02-19T12:51:12.167Z,4.30
2019-02-19T12:53:39.232Z,5.00
2019-02-19T12:56:06.305Z,4.63
2019-02-19T12:58:33.420Z,4.63
2019-02-19T13:01:00.505Z,4.03
2019-02-19T13:03:27.597Z,5.10
2019-02-19T13:05:54.745Z,4.90
2019-02-19T13:08:21.816Z,4.40
2019-02-19T13:10:48.900Z,4.47
2019-02-19T13:13:15.972Z,4.60
2019-02-19T13:15:43.073Z,4.63
2019-02-19T13:18:10.145Z,4.50
2019-02-19T13:20:37.235Z,4.53
2019-02-19T13:23:04.304Z,3.93
2019-02-19T13:25:31.391Z,5.17
2019-02-19T13:27:58.500Z,4.50
2019-02-19T13:30:25.573Z,4.60
2019-02-19T13:32:52.641Z,4.93
2019-02-19T13:35:19.732Z,4.10
2019-02-19T13:37:46.807Z,4.70
2019-02-19T13:40:13.906Z,4.53
2019-02-19T13:42:40.972Z,4.30
2019-02-19T13:45:09.222Z,3.90
2019-02-19T13:47:36.312Z,4.23
2019-02-19T13:50:03.685Z,4.20
2019-02-19T13:52:37.239Z,4.80
2019-02-19T13:55:09.305Z,4.27
2019-02-19T13:57:36.375Z,4.20
2019-02-19T14:00:03.765Z,4.67
2019-02-19T14:02:30.867Z,4.57
2019-02-19T14:04:57.967Z,3.93
2019-02-19T14:07:25.029Z,4.50
2019-02-19T14:09:52.099Z,4.13
2019-02-19T14:12:19.204Z,4.03
2019-02-19T14:14:50.383Z,4.40
2019-02-19T14:17:19.961Z,3.67
2019-02-19T14:20:01.574Z,3.70
2019-02-19T14:24:38.445Z,4.00
2019-02-19T14:27:10.177Z,3.60
2019-02-19T14:29:48.718Z,3.90
2019-02-19T14:32:51.205Z,3.83
2019-02-19T14:35:23.966Z,3.73
2019-02-19T14:39:57.808Z,3.20
2019-02-19T14:42:34.482Z,3.10
2019-02-19T14:45:08.130Z,3.47
2019-02-19T14:47:40.798Z,3.50
2019-02-19T14:50:13.648Z,2.97
2019-02-19T14:52:47.327Z,3.47
2019-02-19T14:55:25.981Z,3.80
2019-02-19T14:57:58.825Z,3.50
2019-02-19T15:00:32.484Z,3.50
2019-02-19T15:03:08.158Z,2.33
2019-02-19T15:05:41.864Z,3.37
2019-02-19T15:08:16.405Z,3.43
2019-02-19T15:10:50.053Z,3.10
2019-02-19T15:13:22.940Z,3.40
2019-02-19T15:15:54.720Z,3.33
2019-02-19T15:18:29.248Z,3.43
2019-02-19T15:21:00.981Z,3.37
2019-02-19T15:23:34.660Z,2.83
2019-02-19T15:28:09.460Z,3.23
2019-02-19T15:30:44.117Z,3.37
2019-02-19T15:33:17.757Z,3.37
2019-02-19T15:36:20.337Z,3.07
2019-02-19T15:38:53.090Z,2.80
2019-02-19T15:41:27.780Z,2.60
2019-02-19T15:44:00.300Z,2.73
2019-02-19T15:46:32.009Z,2.43
2019-02-19T15:49:04.803Z,3.00
2019-02-19T15:51:37.480Z,2.70
2019-02-19T15:54:09.193Z,2.57
2019-02-19T15:56:42.773Z,2.83
2019-02-19T15:59:18.410Z,2.63
2019-02-19T16:02:53.175Z,2.67
2019-02-19T16:05:24.907Z,2.53
2019-02-19T16:07:56.792Z,2.30
2019-02-19T16:10:28.509Z,2.50
2019-02-19T16:13:04.268Z,2.80
2019-02-19T16:15:36.898Z,3.13
2019-02-19T16:18:09.557Z,2.53
2019-02-19T16:20:42.304Z,2.23
2019-02-19T16:23:15.081Z,2.97
2019-02-19T16:25:50.776Z,2.40
2019-02-19T16:28:23.460Z,2.67
2019-02-19T16:30:56.213Z,2.13
2019-02-19T16:33:33.853Z,2.70
2019-02-19T16:36:06.516Z,2.27
2019-02-19T16:38:41.053Z,2.70
2019-02-19T16:41:15.730Z,2.30
2019-02-19T16:43:50.225Z,2.50
2019-02-19T16:46:23.101Z,2.27
2019-02-19T16:50:06.857Z,1.97
2019-02-19T16:52:30.671Z,2.20
2019-02-19T16:55:03.359Z,2.37
2019-02-19T16:57:36.173Z,2.20
2019-02-19T17:00:10.687Z,2.20
2019-02-19T17:02:42.417Z,2.27
2019-02-19T17:05:14.941Z,2.37
2019-02-19T17:07:46.693Z,2.60
2019-02-19T17:10:34.329Z,2.33
2019-02-19T17:13:06.085Z,1.83
2019-02-19T17:15:37.825Z,2.13
2019-02-19T17:18:11.504Z,2.00
2019-02-19T17:20:43.225Z,2.00
2019-02-19T17:23:18.066Z,2.00
2019-02-19T17:25:57.776Z,2.30
2019-02-19T17:28:33.478Z,1.60
2019-02-19T17:31:09.073Z,1.80
2019-02-19T17:33:42.559Z,1.93
2019-02-19T17:36:17.203Z,1.87
2019-02-19T17:38:48.981Z,2.60
2019-02-19T17:41:21.495Z,1.80
2019-02-19T17:43:54.209Z,2.00
2019-02-19T17:46:27.908Z,2.30
2019-02-19T17:48:59.862Z,1.57
2019-02-19T17:51:32.761Z,2.13
2019-02-19T17:54:05.306Z,1.77
2019-02-19T17:56:40.925Z,1.70
2019-02-19T17:59:13.673Z,1.80
2019-02-19T18:01:46.340Z,2.00
2019-02-19T18:04:19.045Z,1.93
2019-02-19T18:06:51.572Z,1.80
2019-02-19T18:09:24.408Z,1.63
2019-02-19T18:11:56.131Z,1.60
2019-02-19T18:14:33.763Z,1.87
2019-02-19T18:17:06.437Z,1.70
2019-02-19T18:19:33.540Z,1.77
2019-02-19T18:22:00.626Z,1.67
2019-02-19T18:24:27.735Z,1.70
2019-02-19T18:26:54.878Z,1.50
2019-02-19T18:29:21.955Z,2.17
2019-02-19T18:31:49.051Z,1.57
2019-02-19T18:34:16.157Z,2.00
2019-02-19T18:36:43.238Z,2.00
2019-02-19T18:39:10.296Z,1.57
2019-02-19T18:41:37.397Z,1.80
2019-02-19T18:44:04.469Z,1.50
2019-02-19T18:46:31.552Z,1.40
2019-02-19T18:48:58.659Z,1.53
2019-02-19T18:51:25.747Z,1.43
2019-02-19T18:53:52.858Z,1.50
2019-02-19T18:56:19.954Z,1.50
2019-02-19T18:58:47.024Z,1.20
2019-02-19T19:01:14.113Z,1.73
2019-02-19T19:03:41.209Z,1.30
2019-02-19T19:06:08.326Z,2.00
2019-02-19T19:08:35.408Z,1.30
2019-02-19T19:11:02.521Z,1.50
2019-02-19T19:13:29.603Z,1.60
2019-02-19T19:15:56.713Z,1.40
2019-02-19T19:18:23.812Z,1.50
2019-02-19T19:20:50.934Z,1.53
2019-02-19T19:23:18.025Z,1.87
2019-02-19T19:25:45.107Z,1.47
2019-02-19T19:28:12.185Z,1.90
2019-02-19T19:30:39.295Z,1.30
2019-02-19T19:33:06.365Z,1.63
2019-02-19T19:35:33.457Z,1.63
2019-02-19T19:38:00.563Z,1.33
2019-02-19T19:40:27.676Z,1.57
2019-02-19T19:42:54.748Z,1.57
2019-02-19T19:45:21.836Z,1.27
2019-02-19T19:47:48.954Z,1.60
2019-02-19T19:50:16.026Z,1.30
2019-02-19T19:52:43.113Z,1.60
2019-02-19T19:55:10.219Z,1.27
2019-02-19T19:57:37.339Z,1.63
2019-02-19T20:00:04.732Z,1.07
2019-02-19T20:02:31.839Z,1.10
2019-02-19T20:04:58.949Z,1.50
2019-02-19T20:07:26.035Z,1.23
2019-02-19T20:09:53.113Z,1.30
2019-02-19T20:12:20.211Z,1.10
2019-02-19T20:14:47.306Z,1.10
2019-02-19T20:17:14.389Z,1.20
2019-02-19T20:19:41.469Z,1.33
2019-02-19T20:22:08.553Z,1.27
2019-02-19T20:24:35.649Z,1.17
2019-02-19T20:27:02.797Z,1.00
2019-02-19T20:29:29.882Z,1.47
2019-02-19T20:31:56.978Z,1.00
2019-02-19T20:34:24.070Z,1.40
2019-02-19T20:36:51.175Z,1.73
2019-02-19T20:39:18.274Z,1.17
2019-02-19T20:41:45.387Z,1.37
2019-02-19T20:44:12.481Z,1.30
2019-02-19T20:46:39.582Z,0.90
2019-02-19T20:49:06.670Z,1.30
2019-02-19T20:51:36.387Z,1.10
2019-02-19T20:54:00.848Z,1.13
2019-02-19T20:56:27.939Z,0.90
2019-02-19T20:58:55.031Z,1.27
2019-02-19T21:01:22.113Z,1.07
2019-02-19T21:03:49.205Z,1.40
2019-02-19T21:06:16.270Z,1.33
2019-02-19T21:08:43.373Z,1.30
2019-02-19T21:11:10.482Z,1.00
2019-02-19T21:13:37.545Z,1.00
2019-02-19T21:16:04.652Z,0.90
2019-02-19T21:18:31.741Z,1.07
2019-02-19T21:20:58.852Z,1.20
2019-02-19T21:23:25.982Z,1.03
2019-02-19T21:25:53.073Z,1.20
2019-02-19T21:28:20.171Z,1.10
2019-02-19T21:30:47.263Z,1.10
2019-02-19T21:33:14.352Z,1.30
2019-02-19T21:35:41.467Z,1.00
2019-02-19T21:38:08.544Z,1.30
2019-02-19T21:40:35.629Z,0.80
2019-02-19T21:43:02.712Z,1.37
2019-02-19T21:45:29.808Z,1.10
2019-02-19T21:47:56.905Z,1.03
2019-02-19T21:50:24.009Z,1.20
2019-02-19T21:52:51.116Z,1.30
2019-02-19T21:55:18.209Z,1.27
2019-02-19T21:57:45.338Z,1.23
2019-02-19T22:00:13.472Z,1.20
2019-02-19T22:02:40.544Z,1.10
2019-02-19T22:05:07.645Z,1.30
2019-02-19T22:07:34.730Z,0.80
2019-02-19T22:10:01.820Z,1.30
2019-02-19T22:12:28.904Z,1.00
2019-02-19T22:14:55.978Z,1.30
2019-02-19T22:17:23.101Z,1.20
2019-02-19T22:19:50.187Z,0.77
2019-02-19T22:22:19.330Z,1.20
2019-02-19T22:24:46.405Z,0.83
2019-02-19T22:27:13.497Z,0.87
2019-02-19T22:29:40.588Z,1.20
2019-02-19T22:32:07.876Z,1.20
2019-02-19T22:34:36.586Z,0.93
2019-02-19T22:37:02.098Z,1.37
2019-02-19T22:39:29.197Z,1.23
2019-02-19T22:41:56.289Z,1.03
2019-02-19T22:44:23.377Z,0.77
2019-02-19T22:46:50.501Z,1.20
2019-02-19T22:49:17.585Z,1.00
2019-02-19T22:51:44.669Z,1.00
2019-02-19T22:54:18.444Z,1.20
2019-02-19T22:56:46.250Z,1.40
2019-02-19T22:59:13.333Z,1.10
2019-02-19T23:01:44.384Z,0.80
2019-02-19T23:04:11.473Z,0.90
2019-02-19T23:06:38.564Z,1.00
2019-02-19T23:09:06.001Z,1.17
2019-02-19T23:11:33.093Z,1.00
2019-02-19T23:14:00.201Z,1.07
2019-02-19T23:16:27.268Z,1.10
2019-02-19T23:18:54.338Z,1.10
2019-02-19T23:21:21.401Z,0.90
2019-02-19T23:23:48.509Z,0.90
2019-02-19T23:26:15.589Z,0.87
2019-02-19T23:28:42.681Z,1.07
2019-02-19T23:31:09.760Z,1.10
2019-02-19T23:33:36.832Z,1.10
2019-02-19T23:36:14.150Z,1.13
2019-02-19T23:38:41.223Z,0.90
2019-02-19T23:41:08.311Z,1.10
2019-02-19T23:43:35.404Z,1.00
2019-02-19T23:46:02.499Z,0.90
2019-02-19T23:48:29.608Z,0.90
2019-02-19T23:50:56.718Z,1.17
2019-02-19T23:53:23.804Z,1.20
2019-02-19T23:55:50.892Z,1.03
2019-02-19T23:58:17.984Z,1.00
